Terminal Aerodrome Forecast
Issued by NWS

Home | Current Version | Previous Version | Graphics & Text | Print | Product List | Glossary On
Versions: 1 2 3 4 5 6 7 8 9 10 11 12 13 14 15 16 17
186
FTUS43 KICT 141732
TAFHUT
TAF
KHUT 141732Z 1418/1518 26006KT P6SM FEW200
     FM150400 25005KT P6SM BKN100
     FM150700 33009KT P6SM OVC020
     FM150800 01012KT 4SM -SN OVC015
     FM151200 01015G23KT P6SM OVC040=

USA.gov is the U.S. government's official web portal to all federal, state and local government web resources and services.